Time;durP1;ratioP1;P1;durP2;ratioP2;P2;SDS_P1;SDS_P2;PMS_P1;PMS_P2;Temp;Humidity;BMP_temperature;BMP_pressure;BME280_temperature;BME280_humidity;BME280_pressure;Samples;Min_cycle;Max_cycle;Signal;HPM_P1;HPM_P2
2022/01/08 00:02:21;;;;;;;7.63;3.72;;;2.00;99.90;;;;;;5065752;28;20078;-65
2022/01/08 00:04:47;;;;;;;8.50;3.70;;;2.00;99.90;;;;;;5062019;28;20032;-65
2022/01/08 00:07:12;;;;;;;8.65;3.90;;;2.00;99.90;;;;;;5063867;28;20086;-65
2022/01/08 00:09:38;;;;;;;8.43;3.72;;;2.00;99.90;;;;;;5066782;28;20033;-65
2022/01/08 00:12:04;;;;;;;7.07;3.90;;;2.00;99.90;;;;;;5060049;28;20409;-65
2022/01/08 00:14:30;;;;;;;13.18;4.80;;;2.00;99.90;;;;;;5065487;28;20032;-65
2022/01/08 00:16:56;;;;;;;10.50;3.80;;;2.00;99.90;;;;;;5064195;28;20047;-65
2022/01/08 00:19:22;;;;;;;12.82;4.45;;;2.00;99.90;;;;;;5059906;28;20110;-65
2022/01/08 00:21:47;;;;;;;7.40;3.75;;;2.00;99.90;;;;;;5054021;28;20040;-65
2022/01/08 00:24:13;;;;;;;6.50;3.70;;;2.00;99.90;;;;;;5062101;28;20072;-65
2022/01/08 00:26:39;;;;;;;5.75;3.33;;;2.00;99.90;;;;;;5056996;28;20510;-65
2022/01/08 00:29:04;;;;;;;7.68;3.28;;;2.00;99.90;;;;;;5059240;28;20051;-65
2022/01/08 00:31:30;;;;;;;9.38;4.05;;;2.00;99.90;;;;;;5064351;28;20114;-65
2022/01/08 00:33:56;;;;;;;7.25;3.25;;;2.10;99.90;;;;;;5062086;28;20436;-65
2022/01/08 00:36:21;;;;;;;9.25;3.58;;;2.10;99.90;;;;;;5066561;28;20064;-65
2022/01/08 00:38:47;;;;;;;11.52;4.32;;;2.00;99.90;;;;;;5061959;28;20041;-65
2022/01/08 00:41:13;;;;;;;9.60;4.10;;;2.10;99.90;;;;;;5062332;28;20079;-65
2022/01/08 00:43:38;;;;;;;11.70;4.30;;;2.10;99.90;;;;;;5061568;28;20066;-65
2022/01/08 00:46:04;;;;;;;10.55;4.00;;;2.10;99.90;;;;;;5061167;28;20667;-64
2022/01/08 00:48:30;;;;;;;10.60;4.07;;;2.10;99.90;;;;;;5065838;28;20075;-64
2022/01/08 00:50:56;;;;;;;11.88;4.70;;;2.10;99.90;;;;;;5062063;28;20032;-65
2022/01/08 00:53:21;;;;;;;8.88;4.28;;;2.10;99.90;;;;;;5061491;28;20086;-65
2022/01/08 00:55:47;;;;;;;8.93;4.40;;;2.10;99.90;;;;;;5065346;28;20062;-65
2022/01/08 00:58:13;;;;;;;12.63;4.25;;;2.00;99.90;;;;;;5061396;28;20098;-65
2022/01/08 01:00:41;;;;;;;11.50;4.45;;;2.00;99.90;;;;;;5063983;28;20043;-65
2022/01/08 01:03:07;;;;;;;7.47;4.30;;;2.00;99.90;;;;;;5062890;28;20110;-65
2022/01/08 01:05:33;;;;;;;8.70;3.95;;;1.90;99.90;;;;;;5063206;28;20128;-65
2022/01/08 01:07:59;;;;;;;12.02;4.63;;;1.90;99.90;;;;;;5060518;28;20119;-65
2022/01/08 01:10:24;;;;;;;11.43;4.90;;;1.80;99.90;;;;;;5066704;28;20059;-65
2022/01/08 01:12:50;;;;;;;7.88;6.10;;;1.70;99.90;;;;;;5057208;28;20142;-65
2022/01/08 01:15:17;;;;;;;12.60;6.28;;;1.70;99.90;;;;;;5062471;28;20036;-65
2022/01/08 01:17:45;;;;;;;16.20;6.45;;;1.60;99.90;;;;;;5068263;28;20024;-65
2022/01/08 01:20:13;;;;;;;13.57;6.88;;;1.60;99.90;;;;;;5060322;28;20048;-65
2022/01/08 01:23:00;;;;;;;13.63;6.43;;;1.60;99.90;;;;;;5062725;28;20472;-65
2022/01/08 01:25:33;;;;;;;15.52;7.10;;;1.50;99.90;;;;;;5063125;28;20097;-65
2022/01/08 01:28:11;;;;;;;15.45;7.40;;;1.40;99.90;;;;;;5062052;28;20052;-65
2022/01/08 01:41:25;;;;;;;17.17;8.83;;;1.30;99.90;;;;;;5058996;28;20056;-65
2022/01/08 01:49:06;;;;;;;16.52;8.35;;;1.20;99.90;;;;;;5059143;28;20432;-65
2022/01/08 01:51:32;;;;;;;13.60;8.90;;;1.20;99.90;;;;;;5060491;28;20497;-65
2022/01/08 01:53:58;;;;;;;14.80;8.73;;;1.20;99.90;;;;;;5063328;28;20037;-65
2022/01/08 01:56:24;;;;;;;14.82;9.02;;;1.20;99.90;;;;;;5062732;28;20044;-65
2022/01/08 01:58:50;;;;;;;15.88;9.73;;;1.20;99.90;;;;;;5061416;28;20048;-65
2022/01/08 02:01:16;;;;;;;13.88;9.35;;;1.20;99.90;;;;;;5062400;28;20129;-65
2022/01/08 02:03:42;;;;;;;21.95;10.50;;;1.20;99.90;;;;;;5061660;28;20554;-65
2022/01/08 02:06:08;;;;;;;17.38;9.77;;;1.20;99.90;;;;;;5060416;28;20127;-65
2022/01/08 02:08:35;;;;;;;16.33;9.63;;;1.10;99.90;;;;;;5063017;28;20040;-65
2022/01/08 02:11:01;;;;;;;20.02;9.48;;;1.10;99.90;;;;;;5063468;28;20546;-65
2022/01/08 02:13:28;;;;;;;17.95;9.85;;;1.10;99.90;;;;;;5063145;28;20040;-65
2022/01/08 02:15:55;;;;;;;17.92;10.07;;;1.10;99.90;;;;;;5061955;28;20488;-65
2022/01/08 02:18:27;;;;;;;15.85;9.52;;;1.10;99.90;;;;;;5062911;28;20044;-65
2022/01/08 02:20:55;;;;;;;21.60;9.98;;;1.10;99.90;;;;;;5060351;28;20047;-65
2022/01/08 02:23:20;;;;;;;18.17;10.77;;;1.10;99.90;;;;;;5061840;28;20093;-65
2022/01/08 02:25:46;;;;;;;21.60;10.43;;;1.20;99.90;;;;;;5062316;28;20555;-65
2022/01/08 02:28:12;;;;;;;18.42;9.77;;;1.20;99.90;;;;;;5060916;28;20159;-64
2022/01/08 02:30:38;;;;;;;16.63;9.50;;;1.20;99.90;;;;;;5064259;28;20412;-64
2022/01/08 02:33:03;;;;;;;15.55;8.88;;;1.30;99.90;;;;;;5064677;28;20036;-64
2022/01/08 02:35:30;;;;;;;15.15;9.52;;;1.30;99.90;;;;;;5061949;28;20041;-64
2022/01/08 02:37:55;;;;;;;14.73;9.20;;;1.30;99.90;;;;;;5059032;28;20098;-64
2022/01/08 02:40:23;;;;;;;17.88;9.00;;;1.20;99.90;;;;;;5060429;28;20032;-64
2022/01/08 02:43:03;;;;;;;16.73;8.90;;;1.30;99.90;;;;;;5053900;28;20132;-64
2022/01/08 02:45:31;;;;;;;19.27;8.77;;;1.30;99.90;;;;;;5058755;28;20075;-64
2022/01/08 02:47:57;;;;;;;19.13;8.32;;;1.20;99.90;;;;;;5062675;28;20513;-64
2022/01/08 02:50:24;;;;;;;20.42;9.00;;;1.20;99.90;;;;;;5065372;28;20040;-64
2022/01/08 02:52:50;;;;;;;13.10;7.57;;;1.20;99.90;;;;;;5065721;28;20373;-64
2022/01/08 02:55:19;;;;;;;18.45;8.68;;;1.10;99.90;;;;;;5067764;28;20469;-64
2022/01/08 02:57:46;;;;;;;18.00;8.07;;;1.10;99.90;;;;;;5064866;28;20436;-64
2022/01/08 03:00:14;;;;;;;18.95;8.27;;;1.10;99.90;;;;;;5067965;28;20111;-64
2022/01/08 03:02:42;;;;;;;16.70;7.68;;;1.00;99.90;;;;;;5064006;28;20036;-64
2022/01/08 03:05:10;;;;;;;13.32;7.88;;;1.00;99.90;;;;;;5062761;28;20039;-64
2022/01/08 03:07:40;;;;;;;12.02;6.88;;;1.00;99.90;;;;;;5067366;28;20037;-64
2022/01/08 03:10:07;;;;;;;13.98;7.40;;;1.00;99.90;;;;;;5068249;28;20037;-64
2022/01/08 03:12:33;;;;;;;15.93;6.72;;;1.00;99.90;;;;;;5048815;28;20134;-64
2022/01/08 03:14:59;;;;;;;18.30;6.88;;;1.00;99.90;;;;;;5060752;28;20085;-64
2022/01/08 03:17:25;;;;;;;15.45;6.40;;;1.00;99.90;;;;;;5062847;28;20028;-64
2022/01/08 03:19:52;;;;;;;14.35;6.15;;;1.00;99.90;;;;;;5069432;28;20067;-64
2022/01/08 03:22:18;;;;;;;12.45;6.50;;;1.00;99.90;;;;;;5064441;28;20045;-64
2022/01/08 03:24:44;;;;;;;9.90;6.60;;;0.90;99.90;;;;;;5060952;28;20040;-64
2022/01/08 03:27:11;;;;;;;13.48;6.63;;;0.90;99.90;;;;;;5059168;28;20131;-64
2022/01/08 03:29:37;;;;;;;10.95;5.97;;;0.90;99.90;;;;;;5063051;28;20119;-64
2022/01/08 03:32:03;;;;;;;18.30;6.35;;;0.90;99.90;;;;;;5063075;28;20116;-64
2022/01/08 03:34:29;;;;;;;15.88;6.68;;;0.90;99.90;;;;;;5068059;28;20725;-65
2022/01/08 03:36:55;;;;;;;16.10;7.22;;;1.00;99.90;;;;;;5059967;28;20129;-65
2022/01/08 03:39:21;;;;;;;13.30;7.22;;;1.00;99.90;;;;;;5063937;28;20464;-65
2022/01/08 03:41:47;;;;;;;18.15;7.32;;;1.00;99.90;;;;;;5064683;28;20423;-65
2022/01/08 03:44:13;;;;;;;15.40;7.22;;;1.00;99.90;;;;;;5065579;28;20074;-65
2022/01/08 03:46:38;;;;;;;12.80;7.05;;;1.00;99.90;;;;;;5062084;28;20053;-65
2022/01/08 03:51:31;;;;;;;14.63;7.05;;;1.00;99.90;;;;;;5057861;28;20056;-65
2022/01/08 03:53:58;;;;;;;15.15;7.43;;;1.00;99.90;;;;;;5064792;28;20115;-65
2022/01/08 03:56:26;;;;;;;12.00;6.90;;;1.00;99.90;;;;;;5061301;28;20040;-65
2022/01/08 03:58:52;;;;;;;16.75;7.00;;;1.00;99.90;;;;;;5061085;28;20049;-66
2022/01/08 04:01:17;;;;;;;17.00;6.88;;;0.90;99.90;;;;;;5058405;28;20044;-65
2022/01/08 04:03:43;;;;;;;17.80;7.32;;;0.90;99.90;;;;;;5057755;28;20048;-65
2022/01/08 04:06:09;;;;;;;15.95;7.13;;;0.90;99.90;;;;;;5062501;28;20044;-65
2022/01/08 04:08:34;;;;;;;17.17;7.35;;;0.90;99.90;;;;;;5061293;28;20517;-65
2022/01/08 04:11:01;;;;;;;12.52;6.90;;;1.00;99.90;;;;;;5065320;28;20033;-65
2022/01/08 04:13:31;;;;;;;14.77;7.70;;;1.00;99.90;;;;;;5055309;28;20045;-65
2022/01/08 04:16:02;;;;;;;12.85;7.07;;;1.00;99.90;;;;;;5044283;28;20032;-65
2022/01/08 04:18:27;;;;;;;16.95;7.93;;;1.00;99.90;;;;;;5055941;28;20119;-65
2022/01/08 04:23:38;;;;;;;19.65;7.60;;;1.10;99.90;;;;;;5058507;28;20079;-65
2022/01/08 04:26:03;;;;;;;19.73;8.02;;;1.10;99.90;;;;;;5063192;28;20094;-65
2022/01/08 04:28:29;;;;;;;22.90;8.23;;;1.20;99.90;;;;;;5067572;28;20025;-65
2022/01/08 04:30:55;;;;;;;17.58;8.13;;;1.20;99.90;;;;;;5056292;28;20133;-65
2022/01/08 04:33:21;;;;;;;13.48;7.70;;;1.10;99.90;;;;;;5064187;28;20037;-65
2022/01/08 04:35:46;;;;;;;20.65;7.53;;;1.20;99.90;;;;;;5059202;28;20132;-65
2022/01/08 04:38:12;;;;;;;18.67;8.48;;;1.10;99.90;;;;;;5054698;28;20049;-66
2022/01/08 04:40:39;;;;;;;18.55;8.25;;;1.10;99.90;;;;;;5056377;28;20033;-64
2022/01/08 04:43:05;;;;;;;17.75;9.40;;;1.10;99.90;;;;;;5046836;28;20087;-64
2022/01/08 04:45:31;;;;;;;17.33;7.97;;;1.10;99.90;;;;;;5060203;28;20498;-64
2022/01/08 04:48:00;;;;;;;19.92;8.45;;;1.10;99.90;;;;;;5059225;28;20416;-64
2022/01/08 04:50:27;;;;;;;20.63;8.80;;;1.10;99.90;;;;;;5057469;28;20083;-64
2022/01/08 04:52:53;;;;;;;20.40;8.95;;;1.00;99.90;;;;;;5057628;28;20041;-65
2022/01/08 04:55:19;;;;;;;18.17;8.10;;;1.00;99.90;;;;;;5059516;28;20040;-65
2022/01/08 04:57:44;;;;;;;20.00;8.23;;;0.90;99.90;;;;;;5060581;28;20492;-65
2022/01/08 05:00:11;;;;;;;14.73;8.07;;;0.90;99.90;;;;;;5060163;28;20040;-65
2022/01/08 05:02:37;;;;;;;12.82;7.78;;;0.80;99.90;;;;;;5065222;28;20037;-65
2022/01/08 05:05:03;;;;;;;14.43;7.97;;;0.90;99.90;;;;;;5061849;28;20036;-65
2022/01/08 05:07:28;;;;;;;18.02;7.85;;;0.80;99.90;;;;;;5063163;28;20060;-65
2022/01/08 05:09:54;;;;;;;17.77;8.40;;;0.80;99.90;;;;;;5066540;28;20141;-65
2022/01/08 05:12:20;;;;;;;12.73;7.38;;;0.90;99.90;;;;;;5063399;28;20040;-65
2022/01/08 05:14:45;;;;;;;17.17;7.65;;;0.80;99.90;;;;;;5061608;28;20024;-65
2022/01/08 05:17:14;;;;;;;18.27;7.28;;;0.80;99.90;;;;;;5061580;28;20048;-65
2022/01/08 05:19:49;;;;;;;18.90;7.65;;;0.80;99.90;;;;;;5061039;28;20058;-65
2022/01/08 05:22:24;;;;;;;17.58;7.30;;;0.80;99.90;;;;;;5066625;28;20041;-65
2022/01/08 05:24:51;;;;;;;13.27;6.45;;;0.80;99.90;;;;;;5065857;28;20392;-65
2022/01/08 05:27:17;;;;;;;14.70;6.60;;;0.80;99.90;;;;;;5060626;28;20244;-65
2022/01/08 05:29:48;;;;;;;15.25;6.50;;;0.80;99.90;;;;;;5066622;28;20052;-65
2022/01/08 05:32:18;;;;;;;13.48;6.30;;;0.70;99.90;;;;;;5062555;28;20126;-65
2022/01/08 05:34:54;;;;;;;15.85;6.45;;;0.70;99.90;;;;;;5060872;28;20052;-65
2022/01/08 05:37:20;;;;;;;10.43;5.60;;;0.70;99.90;;;;;;5056005;28;20059;-65
2022/01/08 05:39:47;;;;;;;12.88;6.45;;;0.80;99.90;;;;;;5061412;28;20048;-65
2022/01/08 05:42:13;;;;;;;13.13;5.10;;;0.70;99.90;;;;;;5058409;28;20433;-65
2022/01/08 05:44:39;;;;;;;13.23;5.40;;;0.70;99.90;;;;;;5058617;28;20041;-65
2022/01/08 05:47:05;;;;;;;15.75;6.05;;;0.70;99.90;;;;;;5058682;28;20032;-65
2022/01/08 05:49:31;;;;;;;14.82;5.05;;;0.70;99.90;;;;;;5061503;28;20033;-65
2022/01/08 05:51:56;;;;;;;13.48;5.13;;;0.70;99.90;;;;;;5052478;28;20191;-65
2022/01/08 05:54:22;;;;;;;9.88;4.72;;;0.70;99.90;;;;;;5062292;28;20111;-65
2022/01/08 05:56:51;;;;;;;17.55;5.82;;;0.70;99.90;;;;;;5060136;28;20041;-65
2022/01/08 05:59:18;;;;;;;15.60;5.18;;;0.60;99.90;;;;;;5055634;28;20056;-65
2022/01/08 06:01:44;;;;;;;16.85;5.45;;;0.70;99.90;;;;;;5059544;28;20538;-65
2022/01/08 06:04:10;;;;;;;17.95;5.53;;;0.70;99.90;;;;;;5058966;28;20072;-65
2022/01/08 06:06:35;;;;;;;11.88;5.00;;;0.70;99.90;;;;;;5064439;28;20146;-65
2022/01/08 06:09:02;;;;;;;13.57;5.13;;;0.70;99.90;;;;;;5055688;28;20492;-65
2022/01/08 06:11:28;;;;;;;16.48;6.07;;;0.70;99.90;;;;;;5062265;28;20113;-65
2022/01/08 06:13:54;;;;;;;17.13;5.63;;;0.70;99.90;;;;;;5053688;28;20128;-64
2022/01/08 06:16:20;;;;;;;13.20;5.72;;;0.70;99.90;;;;;;5053685;28;20035;-65
2022/01/08 06:18:46;;;;;;;17.63;5.53;;;0.70;99.90;;;;;;5056322;28;20442;-65
2022/01/08 06:21:12;;;;;;;13.23;5.43;;;0.70;99.90;;;;;;5063175;28;20389;-64
2022/01/08 06:23:37;;;;;;;14.13;5.25;;;0.70;99.90;;;;;;5063711;28;20029;-65
2022/01/08 06:26:05;;;;;;;13.13;5.47;;;0.70;99.90;;;;;;5060522;28;20032;-65
2022/01/08 06:28:31;;;;;;;14.25;5.75;;;0.70;99.90;;;;;;5060917;28;20037;-65
2022/01/08 06:30:56;;;;;;;14.13;6.03;;;0.70;99.90;;;;;;5068744;28;20040;-65
2022/01/08 06:33:22;;;;;;;17.23;5.93;;;0.60;99.90;;;;;;5060234;28;20035;-65
2022/01/08 06:35:48;;;;;;;13.15;5.22;;;0.60;99.90;;;;;;5062847;28;20025;-65
2022/01/08 06:38:15;;;;;;;14.20;5.57;;;0.60;99.90;;;;;;5059005;28;20349;-64
2022/01/08 06:40:41;;;;;;;16.17;6.03;;;0.60;99.90;;;;;;5059600;28;20040;-65
2022/01/08 06:43:06;;;;;;;16.67;5.80;;;0.60;99.90;;;;;;5052983;28;20194;-65
2022/01/08 06:45:32;;;;;;;15.77;6.07;;;0.60;99.90;;;;;;5064881;28;20123;-65
2022/01/08 06:47:58;;;;;;;15.95;5.70;;;0.60;99.90;;;;;;5062037;28;20043;-65
2022/01/08 06:50:23;;;;;;;16.48;6.25;;;0.60;99.90;;;;;;5063656;28;20435;-65
2022/01/08 06:52:49;;;;;;;14.45;6.47;;;0.50;99.90;;;;;;5057614;28;20548;-65
2022/01/08 06:55:15;;;;;;;15.57;6.13;;;0.60;99.90;;;;;;5060748;28;20504;-65
2022/01/08 06:57:43;;;;;;;16.17;5.95;;;0.60;99.90;;;;;;5054245;28;20433;-65
2022/01/08 07:00:09;;;;;;;15.13;6.40;;;0.50;99.90;;;;;;5062810;28;20451;-65
2022/01/08 07:02:35;;;;;;;15.93;6.28;;;0.50;99.90;;;;;;5062526;28;20509;-65
2022/01/08 07:05:00;;;;;;;15.50;5.65;;;0.60;99.90;;;;;;5060429;28;20033;-65
2022/01/08 07:07:27;;;;;;;11.90;5.90;;;0.60;99.90;;;;;;5060550;28;20041;-65
2022/01/08 07:09:52;;;;;;;14.95;5.43;;;0.60;99.90;;;;;;5058924;28;20491;-65
2022/01/08 07:12:18;;;;;;;11.60;4.90;;;0.60;99.90;;;;;;5056878;28;20548;-65
2022/01/08 07:14:44;;;;;;;12.27;5.47;;;0.60;99.90;;;;;;5063084;28;20115;-65
2022/01/08 07:17:10;;;;;;;13.88;5.82;;;0.60;99.90;;;;;;5062909;28;20033;-65
2022/01/08 07:19:35;;;;;;;11.32;5.05;;;0.60;99.90;;;;;;5059302;28;20033;-65
2022/01/08 07:22:01;;;;;;;14.50;5.28;;;0.60;99.90;;;;;;5058990;28;20572;-65
2022/01/08 07:24:27;;;;;;;12.35;4.97;;;0.60;99.90;;;;;;5057241;28;20045;-65
2022/01/08 07:26:53;;;;;;;13.00;6.00;;;0.70;99.90;;;;;;5061239;28;20433;-66
2022/01/08 07:29:19;;;;;;;14.82;6.20;;;0.60;99.90;;;;;;5056267;28;20044;-64
2022/01/08 07:31:44;;;;;;;14.43;4.68;;;0.70;99.90;;;;;;5060368;28;20052;-64
2022/01/08 07:34:11;;;;;;;11.45;4.72;;;0.70;99.90;;;;;;5060760;28;20032;-64
2022/01/08 07:36:36;;;;;;;14.95;5.35;;;0.70;99.90;;;;;;5061021;28;20139;-64
2022/01/08 07:39:03;;;;;;;13.68;4.28;;;0.70;99.90;;;;;;5060215;28;20825;-64
2022/01/08 07:41:28;;;;;;;16.90;4.60;;;0.70;99.90;;;;;;5058647;28;23323;-65
2022/01/08 07:43:54;;;;;;;12.63;4.88;;;0.70;99.90;;;;;;5059006;28;20132;-65
2022/01/08 07:46:21;;;;;;;14.90;4.57;;;0.80;99.90;;;;;;5060453;28;20047;-65
2022/01/08 07:48:47;;;;;;;11.88;4.13;;;0.80;99.90;;;;;;5061342;28;20044;-64
2022/01/08 07:51:12;;;;;;;12.05;4.22;;;0.80;99.90;;;;;;5059652;28;20040;-65
2022/01/08 07:53:38;;;;;;;13.52;4.90;;;0.80;99.90;;;;;;5062761;28;20059;-64
2022/01/08 07:56:05;;;;;;;10.13;3.85;;;0.80;99.90;;;;;;5061590;28;20091;-64
2022/01/08 07:58:31;;;;;;;10.43;3.67;;;0.90;99.90;;;;;;5059252;28;20049;-64
2022/01/08 08:00:57;;;;;;;13.18;4.05;;;0.90;99.90;;;;;;5064952;28;20048;-64
2022/01/08 08:03:23;;;;;;;11.98;4.07;;;0.80;99.90;;;;;;5057758;28;20055;-64
2022/01/08 08:05:50;;;;;;;9.05;4.07;;;0.90;99.90;;;;;;5057467;28;20063;-64
2022/01/08 08:08:20;;;;;;;19.00;4.18;;;0.90;99.90;;;;;;5067744;28;20415;-64
2022/01/08 08:10:48;;;;;;;12.98;3.58;;;0.90;99.90;;;;;;5061095;28;20044;-64
2022/01/08 08:13:18;;;;;;;10.88;4.47;;;1.00;99.90;;;;;;5058853;28;20419;-64
2022/01/08 08:15:44;;;;;;;8.88;3.70;;;1.00;99.90;;;;;;5057386;28;20040;-64
2022/01/08 08:18:11;;;;;;;15.30;3.72;;;1.00;99.90;;;;;;5063939;28;20493;-64
2022/01/08 08:20:37;;;;;;;11.68;4.05;;;1.00;99.90;;;;;;5062779;28;20036;-65
2022/01/08 08:23:03;;;;;;;18.65;4.10;;;1.10;99.90;;;;;;5058038;28;20052;-64
2022/01/08 08:25:29;;;;;;;12.82;4.28;;;1.10;99.90;;;;;;5055900;28;20424;-65
2022/01/08 08:27:55;;;;;;;13.75;3.92;;;1.10;99.90;;;;;;5061210;28;20041;-65
2022/01/08 08:30:21;;;;;;;14.27;4.40;;;1.10;99.90;;;;;;5064283;28;20518;-65
2022/01/08 08:32:47;;;;;;;12.50;4.07;;;1.10;99.90;;;;;;5061320;28;20041;-65
2022/01/08 08:35:13;;;;;;;14.65;4.10;;;1.10;99.90;;;;;;5059972;28;20106;-64
2022/01/08 08:37:40;;;;;;;11.18;3.88;;;1.10;99.90;;;;;;5056512;28;20029;-64
2022/01/08 08:40:07;;;;;;;12.15;4.15;;;1.10;99.90;;;;;;5058931;28;20127;-64
2022/01/08 08:42:33;;;;;;;14.60;6.22;;;1.20;99.90;;;;;;5055490;28;20071;-64
2022/01/08 08:44:59;;;;;;;12.55;3.90;;;1.20;99.90;;;;;;5063673;28;20481;-64
2022/01/08 08:47:24;;;;;;;15.27;3.95;;;1.20;99.90;;;;;;5064131;28;20075;-64
2022/01/08 08:49:50;;;;;;;15.32;4.07;;;1.30;99.90;;;;;;5063628;28;20475;-66
2022/01/08 08:52:16;;;;;;;14.63;4.70;;;1.30;99.90;;;;;;5056428;28;20029;-65
2022/01/08 08:54:43;;;;;;;13.55;4.78;;;1.30;99.90;;;;;;5061825;28;20037;-65
2022/01/08 08:57:09;;;;;;;13.43;5.43;;;1.30;99.90;;;;;;5060973;28;20048;-65
2022/01/08 08:59:36;;;;;;;14.38;4.53;;;1.40;99.90;;;;;;5057043;28;20410;-65
2022/01/08 09:02:02;;;;;;;9.35;4.70;;;1.40;99.90;;;;;;5059105;28;20037;-65
2022/01/08 09:04:28;;;;;;;13.63;4.22;;;1.50;99.90;;;;;;5065254;28;20044;-65
2022/01/08 09:06:56;;;;;;;13.73;4.13;;;1.50;99.90;;;;;;5063693;28;20079;-65
2022/01/08 09:09:23;;;;;;;12.57;5.40;;;1.60;99.90;;;;;;5057013;28;20076;-65
2022/01/08 09:11:49;;;;;;;11.52;4.60;;;1.70;99.90;;;;;;5059189;28;20035;-65
2022/01/08 09:14:15;;;;;;;13.80;5.78;;;1.70;99.90;;;;;;5039556;28;20044;-65
2022/01/08 09:16:47;;;;;;;12.57;5.57;;;1.80;99.90;;;;;;5061037;28;20119;-65
2022/01/08 09:19:14;;;;;;;13.60;4.80;;;1.80;99.90;;;;;;5062142;28;20520;-65
2022/01/08 09:21:40;;;;;;;11.43;4.85;;;1.90;99.90;;;;;;5062315;28;20083;-65
2022/01/08 09:24:06;;;;;;;15.75;5.00;;;1.90;99.90;;;;;;5062735;28;20060;-65
2022/01/08 09:26:31;;;;;;;12.70;4.90;;;1.90;99.90;;;;;;5061085;28;20028;-65
2022/01/08 09:28:57;;;;;;;13.07;4.63;;;1.90;99.90;;;;;;5057115;28;20184;-65
2022/01/08 09:31:23;;;;;;;10.55;4.82;;;1.90;99.90;;;;;;5062536;28;20043;-65
2022/01/08 09:33:49;;;;;;;15.63;4.90;;;1.90;99.90;;;;;;5033587;28;20400;-65
2022/01/08 09:36:15;;;;;;;13.23;4.88;;;2.00;99.90;;;;;;5062434;28;20105;-64
2022/01/08 09:38:41;;;;;;;9.18;4.93;;;2.00;99.90;;;;;;5064957;28;20052;-64
2022/01/08 09:41:06;;;;;;;17.30;6.05;;;2.00;99.90;;;;;;5060277;28;20159;-64
2022/01/08 09:43:34;;;;;;;15.00;6.45;;;2.00;99.90;;;;;;5066303;28;20040;-64
2022/01/08 09:45:59;;;;;;;20.00;9.63;;;2.00;99.90;;;;;;5061396;28;20358;-64
2022/01/08 09:48:26;;;;;;;12.18;5.60;;;2.00;99.90;;;;;;5059337;28;20052;-64
2022/01/08 09:50:51;;;;;;;14.60;6.03;;;2.00;99.90;;;;;;5057597;28;20159;-64
2022/01/08 09:53:17;;;;;;;14.75;6.13;;;2.10;99.90;;;;;;5064422;28;20047;-64
2022/01/08 09:55:43;;;;;;;20.58;11.65;;;2.10;99.90;;;;;;5059963;28;20035;-65
2022/01/08 09:58:09;;;;;;;13.50;7.28;;;2.20;99.90;;;;;;5060869;28;20362;-64
2022/01/08 10:00:36;;;;;;;15.68;6.32;;;2.30;99.90;;;;;;5043978;28;20040;-65
2022/01/08 10:03:15;;;;;;;24.17;12.05;;;2.30;99.90;;;;;;5058569;28;20055;-65
2022/01/08 10:06:00;;;;;;;14.25;7.32;;;2.40;99.90;;;;;;5055355;28;20090;-65
2022/01/08 10:08:31;;;;;;;15.40;6.57;;;2.40;99.90;;;;;;5060949;28;20426;-65
2022/01/08 10:11:03;;;;;;;17.23;7.55;;;2.40;99.90;;;;;;5059241;28;20031;-64
2022/01/08 10:13:33;;;;;;;14.55;6.72;;;2.40;99.90;;;;;;5063111;28;20458;-65
2022/01/08 10:18:45;;;;;;;11.98;7.53;;;2.60;99.90;;;;;;5063987;28;20128;-65
2022/01/08 10:21:38;;;;;;;14.57;6.63;;;2.60;99.90;;;;;;5058466;28;20044;-65
2022/01/08 10:24:08;;;;;;;12.68;7.75;;;2.70;99.90;;;;;;5055335;28;20061;-65
2022/01/08 10:26:39;;;;;;;12.05;7.65;;;2.70;99.90;;;;;;5057964;28;20389;-65
2022/01/08 10:29:16;;;;;;;14.95;8.48;;;2.80;99.90;;;;;;5056649;28;20068;-65
2022/01/08 10:31:43;;;;;;;16.23;9.60;;;2.80;99.90;;;;;;5058996;28;20057;-65
2022/01/08 10:34:16;;;;;;;15.15;8.73;;;2.90;99.90;;;;;;5061205;28;20029;-65
2022/01/08 10:36:45;;;;;;;14.65;8.27;;;2.90;99.90;;;;;;5055801;28;20048;-65
2022/01/08 10:39:22;;;;;;;14.57;7.20;;;2.90;99.90;;;;;;5063058;28;20411;-65
2022/01/08 10:41:51;;;;;;;12.15;7.25;;;3.00;99.90;;;;;;5060646;28;20123;-65
2022/01/08 10:44:19;;;;;;;14.45;7.20;;;3.00;99.90;;;;;;5063363;28;20516;-65
2022/01/08 10:47:06;;;;;;;15.57;8.05;;;3.00;99.90;;;;;;5057198;28;20056;-66
2022/01/08 10:49:43;;;;;;;15.93;7.75;;;3.00;99.90;;;;;;5059925;28;20492;-65
2022/01/08 10:52:10;;;;;;;13.15;8.13;;;3.00;99.90;;;;;;5063289;28;20040;-65
2022/01/08 10:54:40;;;;;;;15.45;7.95;;;3.10;99.90;;;;;;5061037;28;20037;-65
2022/01/08 10:57:08;;;;;;;15.40;7.38;;;3.10;99.90;;;;;;5056135;28;20056;-66
2022/01/08 10:59:36;;;;;;;15.57;7.05;;;3.20;99.90;;;;;;5054520;28;20060;-66
2022/01/08 11:02:02;;;;;;;14.43;6.97;;;3.30;99.90;;;;;;5058770;28;20056;-66
2022/01/08 11:04:40;;;;;;;18.95;7.20;;;3.30;99.90;;;;;;5059720;28;20057;-66
2022/01/08 11:07:08;;;;;;;13.05;6.32;;;3.30;99.90;;;;;;5063057;28;20040;-66
2022/01/08 11:09:36;;;;;;;18.45;7.97;;;3.30;99.90;;;;;;5065334;28;20044;-66
2022/01/08 11:12:04;;;;;;;15.13;6.35;;;3.40;99.90;;;;;;5058631;28;20044;-66
2022/01/08 11:15:01;;;;;;;12.63;7.18;;;3.50;99.90;;;;;;5060861;28;20060;-66
2022/01/08 11:17:38;;;;;;;16.00;6.75;;;3.50;99.90;;;;;;5064855;28;20037;-66
2022/01/08 11:20:13;;;;;;;15.48;7.22;;;3.50;99.90;;;;;;5062433;28;20051;-66
2022/01/08 11:22:46;;;;;;;12.48;6.55;;;3.50;99.90;;;;;;5058007;28;20144;-66
2022/01/08 11:25:13;;;;;;;16.02;7.25;;;3.50;99.90;;;;;;5060415;28;20044;-66
2022/01/08 11:28:20;;;;;;;11.95;6.30;;;3.40;99.90;;;;;;5060659;28;20056;-66
2022/01/08 11:30:50;;;;;;;13.93;6.65;;;3.50;99.90;;;;;;5064608;28;20051;-66
2022/01/08 11:33:22;;;;;;;16.00;7.35;;;3.50;99.90;;;;;;5065134;28;20029;-66
2022/01/08 11:35:50;;;;;;;16.50;7.90;;;3.50;99.90;;;;;;5062500;28;20067;-66
2022/01/08 11:38:19;;;;;;;12.13;6.88;;;3.50;99.90;;;;;;5061794;28;20037;-66
2022/01/08 11:40:46;;;;;;;11.75;7.97;;;3.60;99.90;;;;;;5066065;28;20064;-66
2022/01/08 11:43:14;;;;;;;174.93;120.07;;;3.70;99.90;;;;;;5061061;28;20434;-66
2022/01/08 11:45:47;;;;;;;13.02;9.15;;;3.70;99.90;;;;;;5064503;28;20053;-66
2022/01/08 11:48:14;;;;;;;14.00;8.32;;;3.80;99.90;;;;;;5060161;28;20067;-66
2022/01/08 11:50:48;;;;;;;16.40;8.35;;;3.80;99.90;;;;;;5066477;28;20044;-66
2022/01/08 11:53:19;;;;;;;14.40;8.67;;;3.80;99.90;;;;;;5063439;28;20037;-66
2022/01/08 11:55:54;;;;;;;15.20;8.60;;;3.90;99.90;;;;;;5059676;28;20318;-66
2022/01/08 11:58:20;;;;;;;;;;;4.00;99.90;;;;;;5059067;28;20052;-66
2022/01/08 12:00:53;;;;;;;15.65;10.02;;;4.00;99.90;;;;;;5062967;28;19939;-66
2022/01/08 12:03:30;;;;;;;16.55;9.90;;;4.00;99.90;;;;;;5056678;28;20611;-66
2022/01/08 12:05:56;;;;;;;16.30;10.70;;;4.00;99.90;;;;;;5062694;28;20545;-66
2022/01/08 12:08:47;;;;;;;16.92;9.65;;;4.00;99.90;;;;;;5064093;28;20085;-66
2022/01/08 12:11:13;;;;;;;17.58;10.52;;;4.00;99.90;;;;;;5059544;28;20604;-66
2022/01/08 12:13:46;;;;;;;20.05;11.38;;;4.00;99.90;;;;;;5064466;28;20231;-66
2022/01/08 12:16:32;;;;;;;18.02;12.35;;;4.00;99.90;;;;;;5056802;28;20055;-66
2022/01/08 12:18:58;;;;;;;15.90;11.27;;;3.90;99.90;;;;;;5054953;28;20048;-65
2022/01/08 12:21:40;;;;;;;17.55;12.48;;;3.90;99.90;;;;;;5063082;28;20425;-65
2022/01/08 12:24:28;;;;;;;18.05;12.55;;;3.90;99.90;;;;;;5058782;28;20483;-65
2022/01/08 12:26:54;;;;;;;22.20;13.93;;;4.00;99.90;;;;;;5061532;28;20167;-66
2022/01/08 12:29:40;;;;;;;23.15;14.20;;;3.90;99.90;;;;;;5060768;28;20036;-66
2022/01/08 12:32:37;;;;;;;20.45;14.95;;;3.80;99.90;;;;;;5058707;28;20059;-66
2022/01/08 12:35:14;;;;;;;21.40;14.18;;;3.90;99.90;;;;;;5058213;28;20106;-66
2022/01/08 12:37:44;;;;;;;21.17;13.80;;;3.80;99.90;;;;;;5056544;28;20044;-66
2022/01/08 12:40:12;;;;;;;19.42;13.85;;;3.90;99.90;;;;;;5067876;28;20057;-66
2022/01/08 12:42:44;;;;;;;19.80;15.18;;;3.80;99.90;;;;;;5060791;28;20040;-66
2022/01/08 12:45:09;;;;;;;21.15;14.98;;;3.80;99.90;;;;;;5062028;28;20037;-66
2022/01/08 12:47:49;;;;;;;21.00;15.02;;;3.80;99.90;;;;;;5058646;28;20094;-66
2022/01/08 12:50:27;;;;;;;20.10;15.13;;;3.80;99.90;;;;;;5053462;28;20121;-66
2022/01/08 12:53:05;;;;;;;23.05;15.55;;;3.80;99.90;;;;;;5057725;28;20039;-66
2022/01/08 12:55:53;;;;;;;20.45;15.15;;;3.80;99.90;;;;;;5058416;28;20033;-66
2022/01/08 12:58:20;;;;;;;21.10;14.50;;;3.80;99.90;;;;;;5063465;28;20349;-66
2022/01/08 13:01:17;;;;;;;24.48;16.00;;;3.80;99.90;;;;;;5065380;28;20055;-66
2022/01/08 13:03:48;;;;;;;24.90;14.70;;;3.80;99.90;;;;;;5048112;28;20535;-65
2022/01/08 13:06:14;;;;;;;19.63;14.93;;;3.80;99.90;;;;;;5056999;28;20105;-65
2022/01/08 13:08:41;;;;;;;23.98;17.27;;;3.80;99.90;;;;;;5064695;28;20041;-65
2022/01/08 13:11:10;;;;;;;20.85;17.10;;;3.80;99.90;;;;;;5057859;28;20040;-66
2022/01/08 13:13:45;;;;;;;21.80;16.45;;;3.80;99.90;;;;;;5061620;28;20032;-66
2022/01/08 13:16:25;;;;;;;25.02;16.73;;;3.80;99.90;;;;;;5054736;28;20492;-66